Time;durP1;ratioP1;P1;durP2;ratioP2;P2;SDS_P1;SDS_P2;PMS_P1;PMS_P2;Temp;Humidity;BMP_temperature;BMP_pressure;BME280_temperature;BME280_humidity;BME280_pressure;Samples;Min_cycle;Max_cycle;Signal;HPM_P1;HPM_P2
2023/04/23 00:02:18;;;;;;;40.20;28.33;;;;;;;;;;5136928;27;20950;-69
2023/04/23 00:04:50;;;;;;;37.27;26.30;;;;;;;;;;5136775;27;20974;-68
2023/04/23 00:07:19;;;;;;;40.60;27.60;;;;;;;;;;5137239;27;20425;-69
2023/04/23 00:09:46;;;;;;;38.17;28.27;;;;;;;;;;5137237;27;20478;-68
2023/04/23 00:12:14;;;;;;;41.30;26.97;;;;;;;;;;5136504;27;20939;-68
2023/04/23 00:14:41;;;;;;;39.93;28.60;;;;;;;;;;5136618;27;20444;-68
2023/04/23 00:17:10;;;;;;;45.40;30.90;;;;;;;;;;5136423;27;20470;-69
2023/04/23 00:19:37;;;;;;;42.70;31.60;;;;;;;;;;5136859;27;20444;-68
2023/04/23 00:22:05;;;;;;;45.23;30.90;;;;;;;;;;5136381;27;20533;-68
2023/04/23 00:24:34;;;;;;;44.00;31.73;;;;;;;;;;5136711;27;20449;-68
2023/04/23 00:27:02;;;;;;;42.60;29.20;;;;;;;;;;5135879;27;20452;-69
2023/04/23 00:29:29;;;;;;;43.70;29.53;;;;;;;;;;5136561;27;20467;-68
2023/04/23 00:31:56;;;;;;;43.17;30.63;;;;;;;;;;5136663;27;20430;-68
2023/04/23 00:34:25;;;;;;;43.77;31.53;;;;;;;;;;5136231;27;20442;-69
2023/04/23 00:36:52;;;;;;;46.20;32.07;;;;;;;;;;5136614;27;20525;-69
2023/04/23 00:39:19;;;;;;;43.17;32.00;;;;;;;;;;5136453;27;20470;-70
2023/04/23 00:41:47;;;;;;;42.83;30.67;;;;;;;;;;5136517;27;20451;-70
2023/04/23 00:44:14;;;;;;;42.00;29.60;;;;;;;;;;5136247;27;20439;-68
2023/04/23 00:46:41;;;;;;;41.30;28.93;;;;;;;;;;5136268;27;20451;-68
2023/04/23 00:49:09;;;;;;;47.73;31.77;;;;;;;;;;5136130;27;20473;-68
2023/04/23 00:51:37;;;;;;;45.60;30.90;;;;;;;;;;5136159;27;20435;-70
2023/04/23 00:54:05;;;;;;;44.10;30.10;;;;;;;;;;5135687;27;20446;-68
2023/04/23 00:56:32;;;;;;;47.97;32.00;;;;;;;;;;5136096;27;20443;-68
2023/04/23 00:59:01;;;;;;;47.40;32.50;;;;;;;;;;5135897;27;20747;-70
2023/04/23 01:01:29;;;;;;;45.63;32.17;;;;;;;;;;5135912;27;20447;-68
2023/04/23 01:03:56;;;;;;;49.50;33.70;;;;;;;;;;5135875;27;20936;-70
2023/04/23 01:06:27;;;;;;;47.20;34.67;;;;;;;;;;5136258;27;20500;-68
2023/04/23 01:08:56;;;;;;;51.60;34.50;;;;;;;;;;5135344;27;20471;-70
2023/04/23 01:11:23;;;;;;;49.97;34.90;;;;;;;;;;5135418;27;20446;-70
2023/04/23 01:13:51;;;;;;;50.17;35.10;;;;;;;;;;5135777;27;20470;-68
2023/04/23 01:16:18;;;;;;;48.73;33.57;;;;;;;;;;5129824;27;20467;-68
2023/04/23 01:18:45;;;;;;;45.47;32.10;;;;;;;;;;5114962;28;20449;-70
2023/04/23 01:21:13;;;;;;;51.83;33.93;;;;;;;;;;5115039;28;20447;-68
2023/04/23 01:23:41;;;;;;;49.63;34.50;;;;;;;;;;5114879;28;20436;-70
2023/04/23 01:26:09;;;;;;;52.73;35.90;;;;;;;;;;5115373;28;20447;-68
2023/04/23 01:28:37;;;;;;;50.20;36.13;;;;;;;;;;5114824;28;20513;-68
2023/04/23 01:31:04;;;;;;;59.93;37.10;;;;;;;;;;5114443;28;20451;-71
2023/04/23 01:33:32;;;;;;;53.87;35.93;;;;;;;;;;5115075;28;20461;-70
2023/04/23 01:36:00;;;;;;;55.90;37.87;;;;;;;;;;5115106;28;20444;-70
2023/04/23 01:38:29;;;;;;;54.70;36.50;;;;;;;;;;5113878;28;20516;-70
2023/04/23 01:40:58;;;;;;;56.60;37.50;;;;;;;;;;5114685;28;20468;-68
2023/04/23 01:43:25;;;;;;;53.93;36.33;;;;;;;;;;5114164;28;20504;-70
2023/04/23 01:45:52;;;;;;;53.20;36.47;;;;;;;;;;5114564;28;20446;-68
2023/04/23 01:48:20;;;;;;;56.70;37.50;;;;;;;;;;5114482;28;20450;-70
2023/04/23 01:50:47;;;;;;;58.47;39.47;;;;;;;;;;5114743;28;20827;-69
2023/04/23 01:53:14;;;;;;;58.60;38.70;;;;;;;;;;5114447;28;20441;-70
2023/04/23 01:55:42;;;;;;;61.63;37.70;;;;;;;;;;5114225;28;20516;-70
2023/04/23 01:58:11;;;;;;;60.50;41.00;;;;;;;;;;5114398;28;20465;-70
2023/04/23 02:00:38;;;;;;;60.80;39.10;;;;;;;;;;5114065;28;20455;-70
2023/04/23 02:03:05;;;;;;;60.50;39.37;;;;;;;;;;5113899;28;20441;-70
2023/04/23 02:05:35;;;;;;;63.37;38.07;;;;;;;;;;5113930;28;20447;-70
2023/04/23 02:08:03;;;;;;;59.13;38.17;;;;;;;;;;5114600;28;20439;-69
2023/04/23 02:10:30;;;;;;;62.23;39.90;;;;;;;;;;5113755;28;20976;-69
2023/04/23 02:12:58;;;;;;;55.33;36.90;;;;;;;;;;5114069;28;20486;-70
2023/04/23 02:15:26;;;;;;;57.33;37.80;;;;;;;;;;5114035;28;20452;-69
2023/04/23 02:17:54;;;;;;;58.40;38.90;;;;;;;;;;5114376;28;20494;-69
2023/04/23 02:20:21;;;;;;;61.33;38.77;;;;;;;;;;5114025;28;20458;-70
2023/04/23 02:22:50;;;;;;;57.47;36.23;;;;;;;;;;5114149;28;20435;-69
2023/04/23 02:25:17;;;;;;;52.87;34.70;;;;;;;;;;5113903;28;20441;-69
2023/04/23 02:27:44;;;;;;;59.70;38.37;;;;;;;;;;5114550;28;20796;-69
2023/04/23 02:30:12;;;;;;;58.03;36.20;;;;;;;;;;5113974;28;20501;-69
2023/04/23 02:32:41;;;;;;;54.80;35.83;;;;;;;;;;5113574;28;20445;-69
2023/04/23 02:35:09;;;;;;;59.90;35.83;;;;;;;;;;5113747;28;20442;-71
2023/04/23 02:37:36;;;;;;;52.40;36.50;;;;;;;;;;5113541;28;20957;-70
2023/04/23 02:40:05;;;;;;;57.20;37.87;;;;;;;;;;5113779;28;20443;-70
2023/04/23 02:42:32;;;;;;;59.90;38.57;;;;;;;;;;5113555;28;20436;-70
2023/04/23 02:44:59;;;;;;;58.27;37.27;;;;;;;;;;5113397;28;20916;-70
2023/04/23 02:47:26;;;;;;;54.60;35.77;;;;;;;;;;5114179;28;20481;-69
2023/04/23 02:49:55;;;;;;;54.60;36.87;;;;;;;;;;5113966;28;20993;-69
2023/04/23 02:52:22;;;;;;;52.80;36.50;;;;;;;;;;5117647;28;20440;-69
2023/04/23 02:54:50;;;;;;;62.13;37.57;;;;;;;;;;5117425;28;20447;-69
2023/04/23 02:57:18;;;;;;;56.37;36.70;;;;;;;;;;5117547;28;20933;-69
2023/04/23 02:59:45;;;;;;;59.53;36.73;;;;;;;;;;5117684;28;20856;-69
2023/04/23 03:02:12;;;;;;;60.23;38.00;;;;;;;;;;5117895;28;20443;-69
2023/04/23 03:04:39;;;;;;;58.97;35.77;;;;;;;;;;5117341;28;20530;-69
2023/04/23 03:07:08;;;;;;;58.87;38.37;;;;;;;;;;5117659;28;20492;-69
2023/04/23 03:09:35;;;;;;;55.50;35.70;;;;;;;;;;5117407;28;20479;-69
2023/04/23 03:12:02;;;;;;;65.07;39.63;;;;;;;;;;5117491;28;20439;-70
2023/04/23 03:14:30;;;;;;;60.17;36.50;;;;;;;;;;5117464;28;20438;-69
2023/04/23 03:16:57;;;;;;;63.93;37.97;;;;;;;;;;5117335;28;20565;-69
2023/04/23 03:19:24;;;;;;;69.60;39.97;;;;;;;;;;5117383;28;20439;-69
2023/04/23 03:21:51;;;;;;;67.00;37.47;;;;;;;;;;5117601;28;20916;-69
2023/04/23 03:24:21;;;;;;;63.03;38.57;;;;;;;;;;5117248;28;20442;-69
2023/04/23 03:26:48;;;;;;;59.73;37.40;;;;;;;;;;5116987;28;20963;-69
2023/04/23 03:29:15;;;;;;;61.80;38.27;;;;;;;;;;5117130;28;20445;-69
2023/04/23 03:31:43;;;;;;;70.33;39.27;;;;;;;;;;5116965;28;20436;-78
2023/04/23 03:34:10;;;;;;;66.90;37.07;;;;;;;;;;5116852;28;20439;-70
2023/04/23 03:36:37;;;;;;;61.93;37.27;;;;;;;;;;5116841;28;20877;-69
2023/04/23 03:39:04;;;;;;;61.33;36.33;;;;;;;;;;5116790;28;20447;-69
2023/04/23 03:41:33;;;;;;;68.40;39.87;;;;;;;;;;5116617;28;20452;-70
2023/04/23 03:44:00;;;;;;;62.57;40.40;;;;;;;;;;5117010;28;20774;-70
2023/04/23 03:46:27;;;;;;;63.73;38.90;;;;;;;;;;5116660;28;20439;-69
2023/04/23 03:48:54;;;;;;;60.43;39.40;;;;;;;;;;5116551;28;20442;-69
2023/04/23 03:51:21;;;;;;;63.97;38.23;;;;;;;;;;5116784;28;20554;-69
2023/04/23 03:53:49;;;;;;;63.57;36.83;;;;;;;;;;5116061;28;20446;-69
2023/04/23 03:56:16;;;;;;;72.97;40.23;;;;;;;;;;5116669;28;20441;-69
2023/04/23 03:58:45;;;;;;;69.33;39.63;;;;;;;;;;5116701;28;20450;-69
2023/04/23 04:01:12;;;;;;;74.40;40.03;;;;;;;;;;5116164;28;20443;-69
2023/04/23 04:03:40;;;;;;;70.50;41.90;;;;;;;;;;5115925;28;20473;-69
2023/04/23 04:06:08;;;;;;;69.40;39.40;;;;;;;;;;5116123;28;20453;-69
2023/04/23 04:08:35;;;;;;;68.80;38.80;;;;;;;;;;5116493;28;20442;-69
2023/04/23 04:11:02;;;;;;;65.43;39.27;;;;;;;;;;5116513;28;20474;-69
2023/04/23 04:13:30;;;;;;;65.73;39.87;;;;;;;;;;5116147;28;20459;-69
2023/04/23 04:15:58;;;;;;;65.43;38.27;;;;;;;;;;5118435;27;20443;-69
2023/04/23 04:18:25;;;;;;;71.30;41.97;;;;;;;;;;5137075;27;20447;-69
2023/04/23 04:20:53;;;;;;;71.60;39.17;;;;;;;;;;5136750;27;20443;-69
2023/04/23 04:23:21;;;;;;;74.90;42.73;;;;;;;;;;5137036;27;20469;-69
2023/04/23 04:25:49;;;;;;;75.97;40.20;;;;;;;;;;5136650;27;20486;-69
2023/04/23 04:28:17;;;;;;;82.73;44.67;;;;;;;;;;5136671;27;20469;-70
2023/04/23 04:30:44;;;;;;;72.70;40.97;;;;;;;;;;5136544;27;20473;-69
2023/04/23 04:33:13;;;;;;;83.97;42.53;;;;;;;;;;5136209;27;20442;-69
2023/04/23 04:35:41;;;;;;;78.40;43.07;;;;;;;;;;5136460;27;20448;-69
2023/04/23 04:38:08;;;;;;;77.23;41.33;;;;;;;;;;5136108;27;20538;-69
2023/04/23 04:40:36;;;;;;;81.43;41.90;;;;;;;;;;5136703;27;20772;-69
2023/04/23 04:43:04;;;;;;;73.07;42.07;;;;;;;;;;5136374;27;20448;-70
2023/04/23 04:45:31;;;;;;;67.27;40.60;;;;;;;;;;5136726;27;20982;-69
2023/04/23 04:47:58;;;;;;;63.10;40.57;;;;;;;;;;5135945;27;20484;-70
2023/04/23 04:50:27;;;;;;;79.60;43.73;;;;;;;;;;5136005;27;20502;-69
2023/04/23 04:52:54;;;;;;;75.23;42.27;;;;;;;;;;5136198;27;20453;-69
2023/04/23 04:55:21;;;;;;;66.83;38.20;;;;;;;;;;5135991;27;20426;-70
2023/04/23 04:57:48;;;;;;;74.20;41.40;;;;;;;;;;5135672;27;20449;-69
2023/04/23 05:00:23;;;;;;;65.90;39.20;;;;;;;;;;5135691;27;20448;-69
2023/04/23 05:02:51;;;;;;;70.10;39.97;;;;;;;;;;5135883;27;20441;-69
2023/04/23 05:05:18;;;;;;;72.90;41.30;;;;;;;;;;5135914;27;20435;-69
2023/04/23 05:07:47;;;;;;;73.40;42.77;;;;;;;;;;5135452;27;20443;-69
2023/04/23 05:10:14;;;;;;;71.73;41.37;;;;;;;;;;5135707;27;20497;-69
2023/04/23 05:12:41;;;;;;;71.57;39.40;;;;;;;;;;5135647;27;20447;-69
2023/04/23 05:15:09;;;;;;;65.33;40.23;;;;;;;;;;5135453;27;20448;-69
2023/04/23 05:17:36;;;;;;;73.17;41.17;;;;;;;;;;5134954;27;20474;-69
2023/04/23 05:20:04;;;;;;;64.90;39.53;;;;;;;;;;5135637;27;20442;-69
2023/04/23 05:22:31;;;;;;;79.17;42.90;;;;;;;;;;5135020;27;20939;-69
2023/04/23 05:25:00;;;;;;;75.87;42.37;;;;;;;;;;5135674;27;20529;-70
2023/04/23 05:27:27;;;;;;;71.30;38.93;;;;;;;;;;5135303;27;20438;-70
2023/04/23 05:29:54;;;;;;;70.53;41.40;;;;;;;;;;5135373;27;20437;-70
2023/04/23 05:32:21;;;;;;;72.90;42.00;;;;;;;;;;5134940;27;20434;-69
2023/04/23 05:34:49;;;;;;;66.30;40.73;;;;;;;;;;5135258;27;20444;-69
2023/04/23 05:37:16;;;;;;;73.93;42.43;;;;;;;;;;5134757;27;20447;-69
2023/04/23 05:39:43;;;;;;;66.63;40.80;;;;;;;;;;5135238;27;20442;-69
2023/04/23 05:42:11;;;;;;;75.07;41.63;;;;;;;;;;5135120;27;20447;-69
2023/04/23 05:44:40;;;;;;;72.10;39.30;;;;;;;;;;5135262;27;20499;-69
2023/04/23 05:47:08;;;;;;;66.03;41.00;;;;;;;;;;5134885;27;20446;-68
2023/04/23 05:49:35;;;;;;;68.97;42.00;;;;;;;;;;5134982;27;20446;-68
2023/04/23 05:52:03;;;;;;;77.23;42.30;;;;;;;;;;5134771;27;20482;-68
2023/04/23 05:54:30;;;;;;;74.43;41.40;;;;;;;;;;5134430;27;20450;-68
2023/04/23 05:56:57;;;;;;;70.20;42.43;;;;;;;;;;5134879;27;20438;-73
2023/04/23 05:59:26;;;;;;;68.33;39.93;;;;;;;;;;5134565;27;20960;-70
2023/04/23 06:01:53;;;;;;;65.70;39.37;;;;;;;;;;5134450;27;20477;-71
2023/04/23 06:04:20;;;;;;;68.13;41.20;;;;;;;;;;5134859;27;20443;-68
2023/04/23 06:06:47;;;;;;;67.90;38.77;;;;;;;;;;5134686;27;20439;-69
2023/04/23 06:09:15;;;;;;;59.40;36.40;;;;;;;;;;5134794;27;20445;-69
2023/04/23 06:11:42;;;;;;;69.57;39.60;;;;;;;;;;5134696;27;20478;-69
2023/04/23 06:14:09;;;;;;;58.97;38.90;;;;;;;;;;5134663;27;20436;-68
2023/04/23 06:16:37;;;;;;;65.47;39.27;;;;;;;;;;5134244;27;20467;-69
2023/04/23 06:19:05;;;;;;;51.13;34.13;;;;;;;;;;5134672;27;20445;-69
2023/04/23 06:21:32;;;;;;;53.77;35.63;;;;;;;;;;5134722;27;20450;-69
2023/04/23 06:23:59;;;;;;;50.00;35.53;;;;;;;;;;5134587;27;20454;-70
2023/04/23 06:26:27;;;;;;;49.03;33.97;;;;;;;;;;5133999;27;20433;-71
2023/04/23 06:28:54;;;;;;;46.23;31.40;;;;;;;;;;5134674;27;20434;-70
2023/04/23 06:31:21;;;;;;;52.40;34.37;;;;;;;;;;5134403;27;20474;-70
2023/04/23 06:33:50;;;;;;;49.33;33.40;;;;;;;;;;5134391;28;20441;-71
2023/04/23 06:36:17;;;;;;;47.47;32.73;;;;;;;;;;5134920;28;20465;-70
2023/04/23 06:38:44;;;;;;;53.33;33.60;;;;;;;;;;5134282;28;20438;-71
2023/04/23 06:41:12;;;;;;;44.50;30.77;;;;;;;;;;5134149;28;20446;-70
2023/04/23 06:43:39;;;;;;;43.57;29.73;;;;;;;;;;5134383;28;20492;-70
2023/04/23 06:46:07;;;;;;;43.67;30.53;;;;;;;;;;5134156;28;20446;-72
2023/04/23 06:48:34;;;;;;;40.63;28.77;;;;;;;;;;5134041;28;20440;-70
2023/04/23 06:51:02;;;;;;;44.40;27.43;;;;;;;;;;5134186;28;20478;-71
2023/04/23 06:53:30;;;;;;;38.03;26.23;;;;;;;;;;5133925;28;20449;-71
2023/04/23 06:55:57;;;;;;;37.10;26.60;;;;;;;;;;5134843;28;20551;-70
2023/04/23 06:58:30;;;;;;;31.93;24.17;;;;;;;;;;5133962;28;20446;-70
2023/04/23 07:00:58;;;;;;;35.40;24.53;;;;;;;;;;5134244;28;20443;-71
2023/04/23 07:03:26;;;;;;;27.40;22.00;;;;;;;;;;5133795;28;20446;-70
2023/04/23 07:05:53;;;;;;;27.00;21.47;;;;;;;;;;5134644;28;20448;-70
2023/04/23 07:08:21;;;;;;;26.87;20.63;;;;;;;;;;5133728;28;20436;-70
2023/04/23 07:10:49;;;;;;;24.00;21.37;;;;;;;;;;5134052;28;20480;-71
2023/04/23 07:13:16;;;;;;;23.30;19.97;;;;;;;;;;5133975;28;20880;-71
2023/04/23 07:15:43;;;;;;;24.20;20.17;;;;;;;;;;5134133;28;20441;-71
2023/04/23 07:18:10;;;;;;;21.47;19.10;;;;;;;;;;5133691;28;20429;-70
2023/04/23 07:20:38;;;;;;;20.10;17.23;;;;;;;;;;5133713;28;20444;-71
2023/04/23 07:23:05;;;;;;;19.30;17.20;;;;;;;;;;5133434;28;20437;-70
2023/04/23 07:25:34;;;;;;;21.63;18.50;;;;;;;;;;5133882;28;20441;-70
2023/04/23 07:28:01;;;;;;;18.43;15.80;;;;;;;;;;5133972;28;20528;-70
2023/04/23 07:30:28;;;;;;;20.43;15.90;;;;;;;;;;5133975;28;20505;-70
2023/04/23 07:32:55;;;;;;;18.23;16.33;;;;;;;;;;5133775;28;20455;-70
2023/04/23 07:35:23;;;;;;;16.33;14.50;;;;;;;;;;5133528;28;21010;-70
2023/04/23 07:37:52;;;;;;;17.50;14.83;;;;;;;;;;5135560;27;20437;-70
2023/04/23 07:40:21;;;;;;;20.10;14.67;;;;;;;;;;5137734;27;20445;-70
2023/04/23 07:42:50;;;;;;;15.10;13.57;;;;;;;;;;5137356;27;20447;-70
2023/04/23 07:45:17;;;;;;;16.47;14.23;;;;;;;;;;5137127;27;20441;-70
2023/04/23 07:47:45;;;;;;;17.73;14.47;;;;;;;;;;5137026;27;20539;-71
2023/04/23 07:50:12;;;;;;;16.40;14.30;;;;;;;;;;5137498;27;20452;-70
2023/04/23 07:52:40;;;;;;;17.33;15.53;;;;;;;;;;5137367;27;20475;-71
2023/04/23 07:55:08;;;;;;;17.17;15.40;;;;;;;;;;5136852;27;20949;-71
2023/04/23 07:57:35;;;;;;;16.00;14.20;;;;;;;;;;5136985;27;20450;-71
2023/04/23 08:00:04;;;;;;;15.77;13.23;;;;;;;;;;5137240;27;20539;-71
2023/04/23 08:02:31;;;;;;;16.20;13.83;;;;;;;;;;5136887;27;20449;-71
2023/04/23 08:04:58;;;;;;;15.40;13.77;;;;;;;;;;5136714;27;20922;-71
2023/04/23 08:07:25;;;;;;;15.50;13.90;;;;;;;;;;5137425;27;20459;-71
2023/04/23 08:09:53;;;;;;;15.70;13.63;;;;;;;;;;5137010;27;20956;-71
2023/04/23 08:12:20;;;;;;;18.00;14.20;;;;;;;;;;5136959;27;20584;-71
2023/04/23 08:14:47;;;;;;;15.07;13.57;;;;;;;;;;5136470;27;20500;-71
2023/04/23 08:17:15;;;;;;;15.50;13.90;;;;;;;;;;5136079;27;20475;-71
2023/04/23 08:19:43;;;;;;;16.57;14.20;;;;;;;;;;5136805;27;20805;-70
2023/04/23 08:22:12;;;;;;;16.23;14.00;;;;;;;;;;5137024;27;20791;-71
2023/04/23 08:24:39;;;;;;;15.80;14.10;;;;;;;;;;5136275;27;20455;-71
2023/04/23 08:27:07;;;;;;;14.50;12.87;;;;;;;;;;5136733;27;21010;-70
2023/04/23 08:29:34;;;;;;;17.57;14.70;;;;;;;;;;5136119;27;20923;-71
2023/04/23 08:32:01;;;;;;;14.83;12.83;;;;;;;;;;5136163;27;20474;-71
2023/04/23 08:34:29;;;;;;;14.87;13.13;;;;;;;;;;5136080;27;20445;-71
2023/04/23 08:36:57;;;;;;;14.97;12.43;;;;;;;;;;5136352;27;20545;-71
2023/04/23 08:39:24;;;;;;;13.03;11.10;;;;;;;;;;5136312;27;20452;-71
2023/04/23 08:41:54;;;;;;;13.03;11.77;;;;;;;;;;5136321;27;20441;-71
2023/04/23 08:44:23;;;;;;;12.43;11.10;;;;;;;;;;5136508;27;20438;-71
2023/04/23 08:46:51;;;;;;;17.63;12.23;;;;;;;;;;5136424;27;20545;-71
2023/04/23 08:49:19;;;;;;;12.80;11.57;;;;;;;;;;5135402;27;20533;-71
2023/04/23 08:51:49;;;;;;;13.77;12.47;;;;;;;;;;5136547;27;20484;-71
2023/04/23 08:54:19;;;;;;;12.30;11.10;;;;;;;;;;5136367;27;20422;-71
2023/04/23 08:56:46;;;;;;;15.00;10.80;;;;;;;;;;5135953;27;20957;-71
2023/04/23 08:59:16;;;;;;;11.70;10.50;;;;;;;;;;5136173;27;20548;-71
2023/04/23 09:01:44;;;;;;;13.10;10.40;;;;;;;;;;5136122;27;20446;-70
2023/04/23 09:04:15;;;;;;;10.60;9.60;;;;;;;;;;5135541;27;20451;-70
2023/04/23 09:06:43;;;;;;;12.63;10.47;;;;;;;;;;5136003;27;20430;-71
2023/04/23 09:09:12;;;;;;;11.97;10.07;;;;;;;;;;5135408;27;20438;-71
2023/04/23 09:11:39;;;;;;;10.30;8.63;;;;;;;;;;5135328;27;20564;-71
2023/04/23 09:14:07;;;;;;;10.47;9.47;;;;;;;;;;5135570;27;20464;-70
2023/04/23 09:16:34;;;;;;;9.83;8.93;;;;;;;;;;5135880;27;20469;-71
2023/04/23 09:19:01;;;;;;;10.73;8.97;;;;;;;;;;5135215;27;20449;-72
2023/04/23 09:21:28;;;;;;;15.30;10.10;;;;;;;;;;5135453;27;20441;-71
2023/04/23 09:23:55;;;;;;;10.17;9.23;;;;;;;;;;5135218;27;20444;-71
2023/04/23 09:26:24;;;;;;;11.40;9.83;;;;;;;;;;5134968;27;20445;-70
2023/04/23 09:28:51;;;;;;;10.20;8.00;;;;;;;;;;5134986;27;20933;-70
2023/04/23 09:31:21;;;;;;;11.17;9.27;;;;;;;;;;5135249;27;20768;-70
2023/04/23 09:33:52;;;;;;;10.90;7.97;;;;;;;;;;5135277;27;20453;-71
2023/04/23 09:36:21;;;;;;;11.13;8.33;;;;;;;;;;5135175;27;20444;-71
2023/04/23 09:38:49;;;;;;;12.90;7.87;;;;;;;;;;5135411;27;20449;-71
2023/04/23 09:41:24;;;;;;;9.57;6.60;;;;;;;;;;5134941;27;20440;-71
2023/04/23 09:43:53;;;;;;;8.57;7.60;;;;;;;;;;5135656;27;20473;-70
2023/04/23 09:46:33;;;;;;;9.67;6.50;;;;;;;;;;5134879;27;20444;-71
2023/04/23 09:49:02;;;;;;;9.80;6.70;;;;;;;;;;5134240;27;20527;-71
2023/04/23 09:51:33;;;;;;;7.90;6.90;;;;;;;;;;5134820;27;20463;-70
2023/04/23 09:54:02;;;;;;;7.90;6.37;;;;;;;;;;5134703;27;20427;-70
2023/04/23 09:56:32;;;;;;;6.53;5.20;;;;;;;;;;5134681;27;20953;-71
2023/04/23 09:58:59;;;;;;;8.20;5.53;;;;;;;;;;5134678;27;20490;-71
2023/04/23 10:01:29;;;;;;;6.60;5.80;;;;;;;;;;5134535;27;20441;-71
2023/04/23 10:03:57;;;;;;;8.70;6.30;;;;;;;;;;5134809;27;20444;-71
2023/04/23 10:06:31;;;;;;;7.50;5.93;;;;;;;;;;5134571;27;21002;-71
2023/04/23 10:08:58;;;;;;;6.80;5.70;;;;;;;;;;5134731;27;20432;-71
2023/04/23 10:11:25;;;;;;;5.97;5.30;;;;;;;;;;5134622;27;20438;-71
2023/04/23 10:13:54;;;;;;;10.10;6.50;;;;;;;;;;5135050;27;20441;-71
2023/04/23 10:16:23;;;;;;;9.33;5.83;;;;;;;;;;5134426;27;20981;-71
2023/04/23 10:18:52;;;;;;;6.87;5.50;;;;;;;;;;5134886;27;20439;-72
2023/04/23 10:21:21;;;;;;;5.67;5.13;;;;;;;;;;5134285;27;20951;-71
2023/04/23 10:23:48;;;;;;;7.57;4.63;;;;;;;;;;5134566;27;20441;-71
2023/04/23 10:26:16;;;;;;;7.50;4.00;;;;;;;;;;5134088;27;20441;-69
2023/04/23 10:28:47;;;;;;;8.87;4.67;;;;;;;;;;5135138;27;20465;-71
2023/04/23 10:31:16;;;;;;;8.50;5.20;;;;;;;;;;5134675;27;20481;-71
2023/04/23 10:33:44;;;;;;;9.00;4.10;;;;;;;;;;5133973;28;20476;-71
2023/04/23 10:36:11;;;;;;;7.57;4.07;;;;;;;;;;5134258;28;20524;-72
2023/04/23 10:38:40;;;;;;;8.80;3.90;;;;;;;;;;5133979;28;20449;-72
2023/04/23 10:41:08;;;;;;;6.37;3.80;;;;;;;;;;5134259;28;20463;-72
2023/04/23 10:43:36;;;;;;;4.20;3.80;;;;;;;;;;5134227;28;20949;-71
2023/04/23 10:46:03;;;;;;;6.13;4.00;;;;;;;;;;5133935;28;20544;-71
2023/04/23 10:48:51;;;;;;;4.10;3.70;;;;;;;;;;5133786;28;20444;-72
2023/04/23 10:51:18;;;;;;;4.60;3.37;;;;;;;;;;5134191;28;20437;-71
2023/04/23 10:53:46;;;;;;;7.33;3.50;;;;;;;;;;5134168;28;20483;-71
2023/04/23 10:56:13;;;;;;;5.73;3.70;;;;;;;;;;5134247;28;20445;-71
2023/04/23 10:58:50;;;;;;;3.60;3.30;;;;;;;;;;5134168;28;20444;-71
2023/04/23 11:01:17;;;;;;;3.63;3.10;;;;;;;;;;5134179;28;20441;-71
2023/04/23 11:03:46;;;;;;;5.50;3.40;;;;;;;;;;5133718;28;20449;-71
2023/04/23 11:06:19;;;;;;;5.07;3.40;;;;;;;;;;5133641;28;20953;-71
2023/04/23 11:08:52;;;;;;;10.70;3.30;;;;;;;;;;5134203;28;20778;-71
2023/04/23 11:11:19;;;;;;;5.27;2.90;;;;;;;;;;5135241;27;20915;-71
2023/04/23 11:13:53;;;;;;;8.57;3.07;;;;;;;;;;5138435;27;20831;-71
2023/04/23 11:16:22;;;;;;;7.30;3.57;;;;;;;;;;5137479;27;20483;-71
2023/04/23 11:19:02;;;;;;;4.80;3.53;;;;;;;;;;5137812;27;20437;-71
2023/04/23 11:21:56;;;;;;;4.90;2.77;;;;;;;;;;5137998;27;20782;-71
2023/04/23 11:24:23;;;;;;;4.50;3.30;;;;;;;;;;5138071;27;20491;-71
2023/04/23 11:26:52;;;;;;;6.93;2.87;;;;;;;;;;5137526;27;20445;-71
2023/04/23 11:29:21;;;;;;;3.77;3.00;;;;;;;;;;5137755;27;20499;-71
2023/04/23 11:31:48;;;;;;;3.77;2.80;;;;;;;;;;5137487;27;20599;-71
2023/04/23 11:34:17;;;;;;;5.33;3.10;;;;;;;;;;5137651;27;20442;-71
2023/04/23 11:36:44;;;;;;;3.60;3.17;;;;;;;;;;5137573;27;20432;-71
2023/04/23 11:39:12;;;;;;;5.53;3.70;;;;;;;;;;5137336;27;20506;-71
2023/04/23 11:41:39;;;;;;;8.17;3.10;;;;;;;;;;5137625;27;20438;-71
2023/04/23 11:44:07;;;;;;;7.47;3.40;;;;;;;;;;5137754;27;20449;-72
2023/04/23 11:46:34;;;;;;;3.87;3.37;;;;;;;;;;5137468;27;20459;-71
2023/04/23 11:49:01;;;;;;;8.60;3.77;;;;;;;;;;5137277;27;20878;-71
2023/04/23 11:51:30;;;;;;;6.80;3.67;;;;;;;;;;5137235;27;20459;-71
2023/04/23 11:54:03;;;;;;;6.23;3.70;;;;;;;;;;5137121;27;20485;-72
2023/04/23 11:56:30;;;;;;;4.40;4.00;;;;;;;;;;5137338;27;20422;-71
2023/04/23 11:59:02;;;;;;;4.70;3.60;;;;;;;;;;5137113;27;20530;-71
2023/04/23 12:01:40;;;;;;;7.27;3.60;;;;;;;;;;5137247;27;20467;-72
2023/04/23 12:04:10;;;;;;;5.30;3.70;;;;;;;;;;5136714;27;20903;-71
2023/04/23 12:06:38;;;;;;;3.27;2.60;;;;;;;;;;5136485;27;20436;-72
2023/04/23 12:09:06;;;;;;;7.33;4.17;;;;;;;;;;5136341;27;20529;-71
2023/04/23 12:11:34;;;;;;;7.10;3.00;;;;;;;;;;5136882;27;20430;-72
2023/04/23 12:14:01;;;;;;;3.17;2.87;;;;;;;;;;5136584;27;20485;-71
2023/04/23 12:16:35;;;;;;;2.70;2.47;;;;;;;;;;5136580;27;20471;-72
2023/04/23 12:19:02;;;;;;;5.60;3.00;;;;;;;;;;5136716;27;20810;-70
2023/04/23 12:21:29;;;;;;;4.57;3.30;;;;;;;;;;5136421;27;20440;-70
2023/04/23 12:23:58;;;;;;;3.00;2.60;;;;;;;;;;5135573;27;20455;-71
2023/04/23 12:26:26;;;;;;;3.30;2.10;;;;;;;;;;5136472;27;20435;-71
2023/04/23 12:28:54;;;;;;;4.53;2.67;;;;;;;;;;5136494;27;20445;-72
2023/04/23 12:31:22;;;;;;;6.77;3.10;;;;;;;;;;5137216;27;20434;-70
2023/04/23 12:33:54;;;;;;;3.73;2.43;;;;;;;;;;5136250;27;20841;-71
2023/04/23 12:36:21;;;;;;;4.93;2.40;;;;;;;;;;5136549;27;20430;-71
2023/04/23 12:38:48;;;;;;;3.03;2.33;;;;;;;;;;5136249;27;20450;-71
2023/04/23 12:41:17;;;;;;;5.73;2.50;;;;;;;;;;5136096;27;20442;-72
2023/04/23 12:43:47;;;;;;;3.50;2.73;;;;;;;;;;5135872;27;20472;-72
2023/04/23 12:46:14;;;;;;;2.40;2.20;;;;;;;;;;5136131;27;20448;-71
2023/04/23 12:48:41;;;;;;;5.13;2.30;;;;;;;;;;5135768;27;20446;-72
2023/04/23 12:51:09;;;;;;;5.73;2.33;;;;;;;;;;5136132;27;20449;-73
2023/04/23 12:53:36;;;;;;;3.43;2.20;;;;;;;;;;5136155;27;20480;-70
2023/04/23 12:56:03;;;;;;;3.87;2.50;;;;;;;;;;5135730;27;20546;-71
2023/04/23 12:58:32;;;;;;;3.70;2.07;;;;;;;;;;5135535;27;21030;-71
2023/04/23 13:00:59;;;;;;;4.87;2.90;;;;;;;;;;5135591;27;20541;-70
2023/04/23 13:03:26;;;;;;;4.13;2.50;;;;;;;;;;5135560;27;20796;-71
2023/04/23 13:05:53;;;;;;;3.37;2.73;;;;;;;;;;5135751;27;20437;-71
2023/04/23 13:08:21;;;;;;;4.00;2.47;;;;;;;;;;5135781;27;20442;-71
2023/04/23 13:10:48;;;;;;;3.57;2.70;;;;;;;;;;5135951;27;20437;-71
2023/04/23 13:13:16;;;;;;;5.83;2.33;;;;;;;;;;5135496;27;20474;-70
2023/04/23 13:15:44;;;;;;;4.57;2.27;;;;;;;;;;5134870;27;20451;-68
2023/04/23 13:18:11;;;;;;;3.60;2.17;;;;;;;;;;5135558;27;20426;-71
2023/04/23 13:20:38;;;;;;;2.23;2.03;;;;;;;;;;5135486;27;20435;-71
2023/04/23 13:23:07;;;;;;;3.93;2.30;;;;;;;;;;5135122;27;20448;-70
2023/04/23 13:25:34;;;;;;;1.97;1.87;;;;;;;;;;5135292;27;20540;-70
2023/04/23 13:28:02;;;;;;;2.33;2.23;;;;;;;;;;5135174;27;20445;-71
2023/04/23 13:30:29;;;;;;;5.90;2.27;;;;;;;;;;5135930;27;20455;-70
2023/04/23 13:32:58;;;;;;;1.83;1.73;;;;;;;;;;5135114;27;20472;-70
2023/04/23 13:35:25;;;;;;;2.13;1.80;;;;;;;;;;5134582;27;20493;-71
2023/04/23 13:37:52;;;;;;;1.70;1.60;;;;;;;;;;5134818;27;20475;-70
2023/04/23 13:40:19;;;;;;;1.73;1.63;;;;;;;;;;5134622;27;20894;-70
2023/04/23 13:42:49;;;;;;;1.90;1.70;;;;;;;;;;5134907;27;20465;-71
2023/04/23 13:45:16;;;;;;;2.20;2.10;;;;;;;;;;5135029;27;20436;-71
2023/04/23 13:47:43;;;;;;;1.87;1.60;;;;;;;;;;5134604;27;20803;-72
2023/04/23 13:50:12;;;;;;;2.50;1.80;;;;;;;;;;5135100;27;20438;-71
2023/04/23 13:52:39;;;;;;;1.63;1.53;;;;;;;;;;5134689;27;20491;-71
2023/04/23 13:55:08;;;;;;;1.87;1.77;;;;;;;;;;5134752;27;20437;-71
2023/04/23 13:57:36;;;;;;;2.30;2.03;;;;;;;;;;5135044;27;20533;-70
2023/04/23 14:00:04;;;;;;;3.87;1.83;;;;;;;;;;5134321;27;20453;-70
2023/04/23 14:02:31;;;;;;;4.23;1.90;;;;;;;;;;5134597;27;20434;-71
2023/04/23 14:04:58;;;;;;;5.07;3.23;;;;;;;;;;5134630;27;20450;-70
2023/04/23 14:07:27;;;;;;;2.07;1.63;;;;;;;;;;5134735;27;20536;-71
2023/04/23 14:09:54;;;;;;;3.73;2.77;;;;;;;;;;5134539;27;20426;-71
2023/04/23 14:12:22;;;;;;;4.67;2.40;;;;;;;;;;5134614;27;20437;-72
2023/04/23 14:14:50;;;;;;;3.17;1.87;;;;;;;;;;5134425;27;20485;-71
2023/04/23 14:17:17;;;;;;;2.50;1.80;;;;;;;;;;5134086;27;20475;-71
2023/04/23 14:19:44;;;;;;;2.97;1.83;;;;;;;;;;5133513;27;20437;-71
2023/04/23 14:22:12;;;;;;;4.83;2.20;;;;;;;;;;5134084;27;20949;-71
2023/04/23 14:24:44;;;;;;;2.77;2.20;;;;;;;;;;5133961;27;20446;-71
2023/04/23 14:27:12;;;;;;;2.27;2.07;;;;;;;;;;5134324;27;20880;-71
2023/04/23 14:29:41;;;;;;;2.60;2.10;;;;;;;;;;5134373;27;20802;-71
2023/04/23 14:32:09;;;;;;;2.73;2.40;;;;;;;;;;5133800;27;20997;-71